ZUFUS FAOR-FAOR
Flight info
| Callsign | ZUFUS |
|---|---|
| Flight time | N/A |
| Altitude | 6600 |
| Route | FAGC DCT FALA |
| Aircraft | DA40/L-SBDGRY/S |
Departure
| Time | 2026-05-04 09:07 |
|---|---|
| Airport | O.R. Tambo International Airport (FAOR) |
Arrival
| Time | N/A |
|---|---|
| Airport | O.R. Tambo International Airport (FAOR) |
| Time | Latitude | Longitude | Altitude | Speed | Heading |
|---|---|---|---|---|---|
| 2026-05-04 09:01 | -26.14352 | 28.26146 | 5560 ft | 0 kts | 215° |
| 2026-05-04 09:02 | -26.14349 | 28.26138 | 5560 ft | 4 kts | 349° |
| 2026-05-04 09:02 | -26.14305 | 28.26150 | 5560 ft | 6 kts | 302° |
| 2026-05-04 09:03 | -26.14271 | 28.26064 | 5560 ft | 14 kts | 225° |
| 2026-05-04 09:03 | -26.14384 | 28.25974 | 5560 ft | 25 kts | 215° |
| 2026-05-04 09:03 | -26.14531 | 28.25860 | 5560 ft | 32 kts | 215° |
| 2026-05-04 09:03 | -26.14708 | 28.25696 | 5560 ft | 31 kts | 236° |
| 2026-05-04 09:04 | -26.14746 | 28.25504 | 5560 ft | 23 kts | 321° |
| 2026-05-04 09:04 | -26.14653 | 28.25402 | 5561 ft | 16 kts | 309° |
| 2026-05-04 09:04 | -26.14602 | 28.25394 | 5561 ft | 0 kts | 13° |
| 2026-05-04 09:05 | -26.14600 | 28.25395 | 5561 ft | 6 kts | 15° |
| 2026-05-04 09:05 | -26.14412 | 28.25453 | 5562 ft | 49 kts | 14° |
| 2026-05-04 09:05 | -26.13976 | 28.25591 | 5603 ft | 76 kts | 6° |
| 2026-05-04 09:06 | -26.13475 | 28.25776 | 5762 ft | 82 kts | 18° |
| 2026-05-04 09:07 | -26.10249 | 28.27509 | 6679 ft | 104 kts | 14° |
| 2026-05-04 09:08 | -26.09517 | 28.27831 | 6704 ft | 117 kts | 16° |
| 2026-05-04 09:08 | -26.08736 | 28.27818 | 6706 ft | 117 kts | 334° |
| 2026-05-04 09:08 | -26.08179 | 28.27138 | 6704 ft | 119 kts | 301° |
| 2026-05-04 09:08 | -26.07783 | 28.26317 | 6696 ft | 123 kts | 300° |
| 2026-05-04 09:09 | -26.07386 | 28.25485 | 6683 ft | 118 kts | 300° |
| 2026-05-04 09:09 | -26.07009 | 28.24700 | 6688 ft | 112 kts | 300° |
| 2026-05-04 09:09 | -26.06626 | 28.23904 | 6686 ft | 118 kts | 300° |
| 2026-05-04 09:09 | -26.06239 | 28.23097 | 6706 ft | 120 kts | 300° |
| 2026-05-04 09:10 | -26.05852 | 28.22278 | 6685 ft | 122 kts | 299° |
| 2026-05-04 09:10 | -26.05440 | 28.21433 | 6682 ft | 126 kts | 300° |
| 2026-05-04 09:10 | -26.05013 | 28.20579 | 6691 ft | 126 kts | 301° |
| 2026-05-04 09:10 | -26.04588 | 28.19715 | 6685 ft | 128 kts | 300° |
| 2026-05-04 09:11 | -26.04179 | 28.18849 | 6679 ft | 124 kts | 300° |
| 2026-05-04 09:11 | -26.03786 | 28.17998 | 6681 ft | 123 kts | 300° |
| 2026-05-04 09:11 | -26.03433 | 28.17245 | 6646 ft | 98 kts | 304° |
| 2026-05-04 09:11 | -26.02957 | 28.16833 | 6577 ft | 85 kts | 329° |
| 2026-05-04 09:12 | -26.02421 | 28.16508 | 6450 ft | 88 kts | 329° |
| 2026-05-04 09:12 | -26.01915 | 28.16116 | 6294 ft | 91 kts | 319° |
| 2026-05-04 09:14 | -25.98564 | 28.13967 | 5387 ft | 77 kts | 328° |
| 2026-05-04 09:14 | -25.98058 | 28.13672 | 5533 ft | 86 kts | 330° |
| 2026-05-04 09:14 | -25.97503 | 28.13312 | 5601 ft | 101 kts | 328° |
| 2026-05-04 09:14 | -25.96879 | 28.12869 | 5602 ft | 110 kts | 315° |
| 2026-05-04 09:15 | -25.96622 | 28.12071 | 5577 ft | 116 kts | 271° |
| 2026-05-04 09:15 | -25.96903 | 28.11253 | 5588 ft | 111 kts | 245° |
| 2026-05-04 09:15 | -25.97278 | 28.10523 | 5547 ft | 109 kts | 244° |
| 2026-05-04 09:15 | -25.97653 | 28.09785 | 5542 ft | 108 kts | 246° |
| 2026-05-04 09:17 | -26.03381 | 28.11882 | 5560 ft | 122 kts | 153° |
| 2026-05-04 09:18 | -26.04119 | 28.12349 | 5576 ft | 123 kts | 154° |
| 2026-05-04 09:18 | -26.04733 | 28.13008 | 5572 ft | 125 kts | 116° |
| 2026-05-04 09:18 | -26.04816 | 28.13935 | 5578 ft | 118 kts | 70° |
| 2026-05-04 09:18 | -26.04543 | 28.14783 | 5571 ft | 117 kts | 62° |
| 2026-05-04 09:19 | -26.04277 | 28.15582 | 5580 ft | 108 kts | 63° |
| 2026-05-04 09:19 | -26.04000 | 28.16371 | 5587 ft | 112 kts | 62° |
| 2026-05-04 09:19 | -26.03549 | 28.17026 | 5585 ft | 102 kts | 23° |
| 2026-05-04 09:19 | -26.02947 | 28.16921 | 5631 ft | 95 kts | 311° |
| 2026-05-04 09:20 | -26.02541 | 28.16337 | 5741 ft | 99 kts | 303° |
| 2026-05-04 09:20 | -26.02095 | 28.15663 | 5613 ft | 112 kts | 305° |
| 2026-05-04 09:20 | -26.01508 | 28.15108 | 5580 ft | 111 kts | 329° |
| 2026-05-04 09:20 | -26.00776 | 28.14905 | 5580 ft | 108 kts | 348° |
| 2026-05-04 09:21 | -26.00044 | 28.14778 | 5470 ft | 103 kts | 339° |
| 2026-05-04 09:21 | -25.99456 | 28.14477 | 5372 ft | 80 kts | 328° |
| 2026-05-04 09:21 | -25.99054 | 28.14247 | 5324 ft | 52 kts | 332° |
| 2026-05-04 09:21 | -25.98728 | 28.14063 | 5313 ft | 65 kts | 329° |
| 2026-05-04 09:22 | -25.98277 | 28.13807 | 5416 ft | 79 kts | 329° |
| 2026-05-04 09:22 | -25.97783 | 28.13499 | 5577 ft | 86 kts | 328° |
| 2026-05-04 09:22 | -25.97199 | 28.13125 | 5587 ft | 106 kts | 329° |
| 2026-05-04 09:22 | -25.96639 | 28.12526 | 5578 ft | 121 kts | 297° |
| 2026-05-04 09:23 | -25.96629 | 28.11579 | 5564 ft | 128 kts | 251° |
| 2026-05-04 09:23 | -25.97050 | 28.10719 | 5535 ft | 127 kts | 244° |
| 2026-05-04 09:23 | -25.97505 | 28.09893 | 5540 ft | 125 kts | 243° |
| 2026-05-04 09:23 | -25.98144 | 28.09239 | 5529 ft | 130 kts | 207° |
| 2026-05-04 09:25 | -26.04101 | 28.12201 | 5571 ft | 145 kts | 146° |
| 2026-05-04 09:25 | -26.04511 | 28.13162 | 5583 ft | 142 kts | 82° |
| 2026-05-04 09:26 | -26.04213 | 28.14187 | 5580 ft | 140 kts | 66° |
| 2026-05-04 09:26 | -26.03913 | 28.15205 | 5574 ft | 135 kts | 68° |
| 2026-05-04 09:26 | -26.03559 | 28.16174 | 5573 ft | 134 kts | 51° |
| 2026-05-04 09:26 | -26.02804 | 28.16617 | 5558 ft | 126 kts | 346° |
| 2026-05-04 09:27 | -26.02014 | 28.16233 | 5576 ft | 121 kts | 334° |
| 2026-05-04 09:27 | -26.01260 | 28.15846 | 5575 ft | 118 kts | 333° |
| 2026-05-04 09:27 | -26.00578 | 28.15516 | 5590 ft | 95 kts | 327° |
| 2026-05-04 09:27 | -26.00165 | 28.15066 | 5533 ft | 80 kts | 308° |
| 2026-05-04 09:28 | -25.99745 | 28.14675 | 5457 ft | 77 kts | 320° |
| 2026-05-04 09:28 | -25.99281 | 28.14378 | 5356 ft | 74 kts | 328° |
| 2026-05-04 09:28 | -25.98898 | 28.14160 | 5320 ft | 54 kts | 325° |
| 2026-05-04 09:28 | -25.98515 | 28.13961 | 5420 ft | 65 kts | 328° |
| 2026-05-04 09:29 | -25.98065 | 28.13671 | 5487 ft | 81 kts | 329° |
| 2026-05-04 09:29 | -25.97549 | 28.13337 | 5585 ft | 97 kts | 329° |
| 2026-05-04 09:29 | -25.96908 | 28.12934 | 5580 ft | 114 kts | 330° |
| 2026-05-04 09:29 | -25.96342 | 28.12314 | 5557 ft | 119 kts | 296° |
| 2026-05-04 09:30 | -25.96362 | 28.11417 | 5558 ft | 122 kts | 250° |
| 2026-05-04 09:30 | -25.96761 | 28.10624 | 5551 ft | 116 kts | 244° |
| 2026-05-04 09:30 | -25.97192 | 28.09879 | 5540 ft | 117 kts | 232° |
| 2026-05-04 09:30 | -25.97966 | 28.09760 | 5516 ft | 125 kts | 150° |
| 2026-05-04 09:31 | -25.98733 | 28.10183 | 5536 ft | 122 kts | 158° |
| 2026-05-04 09:31 | -25.99486 | 28.10584 | 5526 ft | 119 kts | 155° |
| 2026-05-04 09:31 | -26.00204 | 28.10957 | 5537 ft | 112 kts | 158° |
| 2026-05-04 09:31 | -26.00925 | 28.11355 | 5570 ft | 119 kts | 156° |
| 2026-05-04 09:32 | -26.01666 | 28.11779 | 5577 ft | 121 kts | 156° |
| 2026-05-04 09:32 | -26.02424 | 28.12206 | 5576 ft | 122 kts | 157° |
| 2026-05-04 09:34 | -26.01600 | 28.15865 | 5588 ft | 105 kts | 329° |
| 2026-05-04 09:34 | -26.00992 | 28.15479 | 5661 ft | 94 kts | 323° |
| 2026-05-04 09:34 | -26.00461 | 28.15082 | 5620 ft | 91 kts | 323° |
| 2026-05-04 09:34 | -25.99862 | 28.14717 | 5513 ft | 103 kts | 330° |
| 2026-05-04 09:35 | -25.99243 | 28.14356 | 5354 ft | 87 kts | 329° |
| 2026-05-04 09:35 | -25.98810 | 28.14109 | 5315 ft | 54 kts | 331° |
| 2026-05-04 09:35 | -25.98604 | 28.13993 | 5305 ft | 0 kts | 332° |
| 2026-05-04 09:38 | -25.98603 | 28.13992 | 5305 ft | 0 kts | 332° |
| 2026-05-04 09:38 | -25.98509 | 28.13939 | 5305 ft | 39 kts | 334° |
| 2026-05-04 09:38 | -25.98139 | 28.13732 | 5325 ft | 72 kts | 328° |
| 2026-05-04 09:39 | -25.97661 | 28.13444 | 5457 ft | 82 kts | 328° |
| 2026-05-04 09:39 | -25.97137 | 28.13124 | 5648 ft | 91 kts | 329° |
| 2026-05-04 09:39 | -25.96568 | 28.12780 | 5823 ft | 94 kts | 328° |
| 2026-05-04 09:39 | -25.96185 | 28.12216 | 5986 ft | 96 kts | 285° |
| 2026-05-04 09:40 | -25.96361 | 28.11482 | 6110 ft | 105 kts | 244° |
| 2026-05-04 09:40 | -25.96745 | 28.10762 | 6235 ft | 112 kts | 246° |
| 2026-05-04 09:40 | -25.97164 | 28.10005 | 6393 ft | 119 kts | 245° |
| 2026-05-04 09:40 | -25.97594 | 28.09173 | 6550 ft | 128 kts | 244° |
| 2026-05-04 09:41 | -25.98072 | 28.08299 | 6708 ft | 133 kts | 244° |
| 2026-05-04 09:42 | -26.01246 | 28.02453 | 7500 ft | 133 kts | 246° |
| 2026-05-04 09:43 | -26.01715 | 28.01576 | 7486 ft | 130 kts | 244° |
| 2026-05-04 09:43 | -26.02192 | 28.00695 | 7500 ft | 139 kts | 246° |
| 2026-05-04 09:43 | -26.02685 | 27.99786 | 7486 ft | 134 kts | 245° |
| 2026-05-04 09:43 | -26.03167 | 27.98883 | 7504 ft | 136 kts | 251° |
| 2026-05-04 09:44 | -26.03499 | 27.97910 | 7480 ft | 134 kts | 256° |
| 2026-05-04 09:44 | -26.03825 | 27.96947 | 7493 ft | 135 kts | 255° |
| 2026-05-04 09:44 | -26.04185 | 27.95983 | 7500 ft | 136 kts | 251° |
| 2026-05-04 09:46 | -26.06682 | 27.89526 | 7474 ft | 136 kts | 251° |
| 2026-05-04 09:46 | -26.07051 | 27.88568 | 7479 ft | 133 kts | 251° |
| 2026-05-04 09:46 | -26.07418 | 27.87658 | 7500 ft | 128 kts | 253° |
| 2026-05-04 09:47 | -26.07788 | 27.86708 | 7484 ft | 137 kts | 253° |
| 2026-05-04 09:47 | -26.08166 | 27.85739 | 7477 ft | 134 kts | 251° |
| 2026-05-04 09:49 | -26.10695 | 27.79234 | 7477 ft | 126 kts | 251° |
| 2026-05-04 09:49 | -26.11046 | 27.78325 | 7486 ft | 133 kts | 253° |
| 2026-05-04 09:49 | -26.11421 | 27.77360 | 7475 ft | 137 kts | 252° |
| 2026-05-04 09:51 | -26.11903 | 27.72325 | 7465 ft | 114 kts | 336° |
| 2026-05-04 09:51 | -26.11121 | 27.72264 | 7491 ft | 117 kts | 6° |
| 2026-05-04 09:51 | -26.10398 | 27.72767 | 7482 ft | 130 kts | 38° |
| 2026-05-04 09:51 | -26.09779 | 27.73522 | 7498 ft | 134 kts | 39° |
| 2026-05-04 09:52 | -26.09145 | 27.74287 | 7364 ft | 139 kts | 38° |
| 2026-05-04 09:52 | -26.08472 | 27.75090 | 7196 ft | 141 kts | 43° |
| 2026-05-04 09:52 | -26.07815 | 27.75906 | 7047 ft | 143 kts | 45° |
| 2026-05-04 09:52 | -26.07167 | 27.76749 | 6878 ft | 142 kts | 44° |
| 2026-05-04 09:53 | -26.06570 | 27.77594 | 6696 ft | 134 kts | 47° |
| 2026-05-04 09:53 | -26.05988 | 27.78282 | 6687 ft | 115 kts | 36° |
| 2026-05-04 09:53 | -26.05417 | 27.78865 | 6695 ft | 108 kts | 36° |
| 2026-05-04 09:53 | -26.04858 | 27.79473 | 6693 ft | 120 kts | 39° |
| 2026-05-04 09:54 | -26.04286 | 27.80135 | 6652 ft | 118 kts | 39° |
| 2026-05-04 09:54 | -26.03736 | 27.80789 | 6683 ft | 116 kts | 39° |
| 2026-05-04 09:54 | -26.03203 | 27.81409 | 6708 ft | 110 kts | 40° |
| 2026-05-04 09:54 | -26.02690 | 27.82031 | 6694 ft | 105 kts | 40° |
| 2026-05-04 09:55 | -26.02199 | 27.82620 | 6712 ft | 104 kts | 39° |
| 2026-05-04 09:55 | -26.01657 | 27.83277 | 6535 ft | 125 kts | 40° |
| 2026-05-04 09:55 | -26.01076 | 27.83994 | 6394 ft | 128 kts | 41° |
| 2026-05-04 09:55 | -26.00479 | 27.84705 | 6238 ft | 123 kts | 41° |
| 2026-05-04 09:56 | -25.99894 | 27.85421 | 6072 ft | 129 kts | 41° |
| 2026-05-04 09:56 | -25.99290 | 27.86154 | 5895 ft | 128 kts | 41° |
| 2026-05-04 09:56 | -25.98687 | 27.86874 | 5722 ft | 130 kts | 42° |
| 2026-05-04 09:56 | -25.98077 | 27.87619 | 5535 ft | 129 kts | 43° |
| 2026-05-04 09:57 | -25.97488 | 27.88333 | 5358 ft | 121 kts | 44° |
| 2026-05-04 09:57 | -25.96987 | 27.88939 | 5190 ft | 97 kts | 43° |
| 2026-05-04 09:57 | -25.96532 | 27.89479 | 5064 ft | 95 kts | 42° |
| 2026-05-04 09:57 | -25.96079 | 27.90028 | 4931 ft | 98 kts | 45° |
| 2026-05-04 09:58 | -25.95614 | 27.90591 | 4801 ft | 98 kts | 45° |
| 2026-05-04 09:58 | -25.95160 | 27.91142 | 4662 ft | 96 kts | 43° |
| 2026-05-04 09:58 | -25.94719 | 27.91673 | 4531 ft | 88 kts | 45° |
| 2026-05-04 10:00 | -25.94232 | 27.92261 | 4512 ft | 0 kts | 49° |
| 2026-05-04 10:02 | -25.93777 | 27.92824 | 4558 ft | 78 kts | 41° |
| 2026-05-04 10:04 | -25.92350 | 27.97250 | 5498 ft | 131 kts | 135° |
| 2026-05-04 10:04 | -25.93028 | 27.97976 | 5488 ft | 136 kts | 135° |
| 2026-05-04 10:04 | -25.93807 | 27.98533 | 5520 ft | 138 kts | 174° |
| 2026-05-04 10:04 | -25.94655 | 27.98107 | 5486 ft | 136 kts | 225° |
| 2026-05-04 10:05 | -25.95369 | 27.97419 | 5479 ft | 138 kts | 224° |
| 2026-05-04 10:05 | -25.96100 | 27.96712 | 5489 ft | 141 kts | 224° |
| 2026-05-04 10:05 | -25.96828 | 27.95993 | 5485 ft | 138 kts | 225° |
| 2026-05-04 10:05 | -25.97527 | 27.95300 | 5482 ft | 135 kts | 225° |
| 2026-05-04 10:06 | -25.98222 | 27.94623 | 5493 ft | 132 kts | 224° |
| 2026-05-04 10:06 | -25.98915 | 27.93929 | 5418 ft | 138 kts | 230° |
| 2026-05-04 10:06 | -25.99255 | 27.92951 | 5273 ft | 140 kts | 274° |
| 2026-05-04 10:08 | -25.95985 | 27.90543 | 4838 ft | 102 kts | 13° |
| 2026-05-04 10:08 | -25.95333 | 27.90940 | 4689 ft | 102 kts | 41° |
| 2026-05-04 10:08 | -25.94912 | 27.91449 | 4557 ft | 82 kts | 40° |
| 2026-05-04 10:08 | -25.94564 | 27.91860 | 4511 ft | 58 kts | 52° |
| 2026-05-04 10:09 | -25.94255 | 27.92236 | 4553 ft | 75 kts | 34° |
| 2026-05-04 10:09 | -25.93909 | 27.92732 | 4677 ft | 84 kts | 47° |
| 2026-05-04 10:09 | -25.93560 | 27.93254 | 4867 ft | 84 kts | 46° |
| 2026-05-04 10:09 | -25.93184 | 27.93815 | 5044 ft | 95 kts | 45° |
| 2026-05-04 10:10 | -25.92771 | 27.94409 | 5270 ft | 99 kts | 46° |
| 2026-05-04 10:10 | -25.92351 | 27.95036 | 5489 ft | 112 kts | 50° |
| 2026-05-04 10:10 | -25.91976 | 27.95884 | 5454 ft | 142 kts | 91° |
| 2026-05-04 10:10 | -25.92616 | 27.96730 | 5498 ft | 148 kts | 136° |
| 2026-05-04 10:11 | -25.93367 | 27.97533 | 5502 ft | 151 kts | 136° |
| 2026-05-04 10:11 | -25.94184 | 27.98291 | 5480 ft | 154 kts | 155° |
| 2026-05-04 10:11 | -25.95135 | 27.98153 | 5492 ft | 144 kts | 227° |
| 2026-05-04 10:11 | -25.95872 | 27.97425 | 5490 ft | 140 kts | 226° |
| 2026-05-04 10:12 | -25.96611 | 27.96709 | 5477 ft | 140 kts | 225° |
| 2026-05-04 10:12 | -25.97330 | 27.96006 | 5472 ft | 136 kts | 226° |
| 2026-05-04 10:12 | -25.98023 | 27.95326 | 5482 ft | 130 kts | 224° |
| 2026-05-04 10:12 | -25.98697 | 27.94679 | 5487 ft | 127 kts | 225° |
| 2026-05-04 10:13 | -25.99364 | 27.94008 | 5489 ft | 132 kts | 231° |
| 2026-05-04 10:13 | -25.99647 | 27.93083 | 5486 ft | 127 kts | 278° |
| 2026-05-04 10:13 | -25.99253 | 27.92206 | 5497 ft | 132 kts | 312° |
| 2026-05-04 10:13 | -25.98639 | 27.91462 | 5318 ft | 123 kts | 315° |
| 2026-05-04 10:14 | -25.98087 | 27.90804 | 5154 ft | 110 kts | 315° |
| 2026-05-04 10:14 | -25.97610 | 27.90251 | 5052 ft | 87 kts | 315° |
| 2026-05-04 10:16 | -25.94509 | 27.91928 | 4510 ft | 56 kts | 47° |
| 2026-05-04 10:16 | -25.94281 | 27.92204 | 4511 ft | 42 kts | 50° |
| 2026-05-04 10:16 | -25.94113 | 27.92403 | 4513 ft | 25 kts | 52° |
| 2026-05-04 10:16 | -25.94093 | 27.92429 | 4513 ft | 0 kts | 48° |
| 2026-05-04 10:17 | -25.94050 | 27.92492 | 4513 ft | 7 kts | 91° |
| 2026-05-04 10:19 | -25.94098 | 27.92813 | 4517 ft | 0 kts | 231° |